createdAt,value
2017-04-02T00:00:35.030Z,28.36
2017-04-02T00:01:44.099Z,28.55
2017-04-02T00:02:52.854Z,28.45
2017-04-02T00:04:01.920Z,28.45
2017-04-02T00:05:10.657Z,28.45
2017-04-02T00:06:19.379Z,28.74
2017-04-02T00:07:28.441Z,28.45
2017-04-02T00:08:37.203Z,28.45
2017-04-02T00:09:46.274Z,28.44
2017-04-02T00:10:55.035Z,28.55
2017-04-02T00:12:03.787Z,28.45
2017-04-02T00:13:12.547Z,28.44
2017-04-02T00:14:21.308Z,28.64
2017-04-02T00:15:30.178Z,28.53
2017-04-02T00:16:38.939Z,28.63
2017-04-02T00:17:47.697Z,28.83
2017-04-02T00:18:56.768Z,28.83
2017-04-02T00:20:06.144Z,28.73
2017-04-02T00:21:14.886Z,29.02
2017-04-02T00:22:23.929Z,28.83
2017-04-02T00:23:33.007Z,29.11
2017-04-02T00:24:41.742Z,28.74
2017-04-02T00:25:50.462Z,29.02
2017-04-02T00:26:59.219Z,28.53
2017-04-02T00:28:07.984Z,29.41
2017-04-02T00:29:16.720Z,29.31
2017-04-02T00:30:25.720Z,29.11
2017-04-02T00:31:34.750Z,28.92
2017-04-02T00:32:44.017Z,29.21
2017-04-02T00:33:52.781Z,28.92
2017-04-02T00:35:01.826Z,29.02
2017-04-02T00:36:10.549Z,29.21
2017-04-02T00:37:19.317Z,29.02
2017-04-02T00:38:28.056Z,28.73
2017-04-02T00:39:36.781Z,29.22
2017-04-02T00:40:45.848Z,29.02
2017-04-02T00:41:54.573Z,28.83
2017-04-02T00:43:03.269Z,29.5
2017-04-02T00:44:11.994Z,29.11
2017-04-02T00:45:20.755Z,29.5
2017-04-02T00:46:29.523Z,29.5
2017-04-02T00:47:38.581Z,29.11
2017-04-02T00:48:47.344Z,29.02
2017-04-02T00:49:56.391Z,29.31
2017-04-02T00:51:05.137Z,29.69
2017-04-02T00:52:14.162Z,29.5
2017-04-02T00:53:22.928Z,28.83
2017-04-02T00:54:31.673Z,29.21
2017-04-02T00:55:40.370Z,29.21
2017-04-02T00:56:49.389Z,29.21
2017-04-02T00:57:58.453Z,29.79
2017-04-02T00:59:07.205Z,29.79
2017-04-02T01:00:15.961Z,29.5
2017-04-02T01:01:24.726Z,29.79
2017-04-02T01:02:33.490Z,29.69
2017-04-02T01:03:42.351Z,29.69
2017-04-02T01:04:51.110Z,29.79
2017-04-02T01:05:59.882Z,29.69
2017-04-02T01:07:08.655Z,29.89
2017-04-02T01:08:17.724Z,29.79
2017-04-02T01:09:26.493Z,29.69
2017-04-02T01:10:35.264Z,29.6
2017-04-02T01:11:44.629Z,29.69
2017-04-02T01:12:53.694Z,29.5
2017-04-02T01:14:02.458Z,29.79
2017-04-02T01:15:11.218Z,29.79
2017-04-02T01:16:19.986Z,29.41
2017-04-02T01:17:28.716Z,29.79
2017-04-02T01:18:37.467Z,29.89
2017-04-02T01:19:46.205Z,29.98
2017-04-02T01:20:54.971Z,29.79
2017-04-02T01:22:04.337Z,30.08
2017-04-02T01:23:13.737Z,29.89
2017-04-02T01:24:22.476Z,29.69
2017-04-02T01:25:31.199Z,29.69
2017-04-02T01:26:40.287Z,29.69
2017-04-02T01:27:49.048Z,29.69
2017-04-02T01:28:57.786Z,29.79
2017-04-02T01:30:06.807Z,29.98
2017-04-02T01:31:15.538Z,30.08
2017-04-02T01:32:24.234Z,30.08
2017-04-02T01:33:32.926Z,29.6
2017-04-02T01:34:41.649Z,29.69
2017-04-02T01:35:50.413Z,30.18
2017-04-02T01:36:59.158Z,29.5
2017-04-02T01:38:08.180Z,30.08
2017-04-02T01:39:16.949Z,29.89
2017-04-02T01:40:25.715Z,29.69
2017-04-02T01:41:34.473Z,30.08
2017-04-02T01:42:43.230Z,29.79
2017-04-02T01:43:51.986Z,29.69
2017-04-02T01:45:00.723Z,29.69
2017-04-02T01:46:09.753Z,29.98
2017-04-02T01:47:18.489Z,29.98
2017-04-02T01:48:27.200Z,29.98
2017-04-02T01:49:36.261Z,30.08
2017-04-02T01:50:45.025Z,29.6
2017-04-02T01:51:53.786Z,29.98
2017-04-02T01:53:02.555Z,29.6
2017-04-02T01:54:11.263Z,29.97
2017-04-02T01:55:19.987Z,29.5
2017-04-02T01:56:29.070Z,29.58
2017-04-02T01:57:37.833Z,30.08
2017-04-02T01:58:46.593Z,29.6
2017-04-02T01:59:55.365Z,30.07
2017-04-02T02:01:04.141Z,30.07
2017-04-02T02:02:13.180Z,30.07
2017-04-02T02:03:21.905Z,29.97
2017-04-02T02:04:30.984Z,30.16
2017-04-02T02:05:39.748Z,29.97
2017-04-02T02:06:48.519Z,30.07
2017-04-02T02:07:57.567Z,30.07
2017-04-02T02:09:06.279Z,30.07
2017-04-02T02:10:15.013Z,30.07
2017-04-02T02:11:23.730Z,29.97
2017-04-02T02:12:32.493Z,29.97
2017-04-02T02:13:41.254Z,29.97
2017-04-02T02:14:50.005Z,29.58
2017-04-02T02:15:58.734Z,29.49
2017-04-02T02:17:07.452Z,29.68
2017-04-02T02:18:16.215Z,29.97
2017-04-02T02:19:24.977Z,29.68
2017-04-02T02:20:33.738Z,29.68
2017-04-02T02:21:42.497Z,29.97
2017-04-02T02:22:51.563Z,30.16
2017-04-02T02:24:00.631Z,29.97
2017-04-02T02:25:09.397Z,29.68
2017-04-02T02:26:18.159Z,29.49
2017-04-02T02:27:27.219Z,29.77
2017-04-02T02:28:36.280Z,29.87
2017-04-02T02:29:45.044Z,29.39
2017-04-02T02:30:54.109Z,29.68
2017-04-02T02:32:02.910Z,29.97
2017-04-02T02:33:11.676Z,30.07
2017-04-02T02:34:20.434Z,29.77
2017-04-02T02:35:29.499Z,29.77
2017-04-02T02:36:38.861Z,30.07
2017-04-02T02:37:47.619Z,29.68
2017-04-02T02:38:56.384Z,29.58
2017-04-02T02:40:05.143Z,29.68
2017-04-02T02:41:13.901Z,29.77
2017-04-02T02:42:22.967Z,29.68
2017-04-02T02:43:31.726Z,29.58
2017-04-02T02:44:40.496Z,29.68
2017-04-02T02:45:49.259Z,29.77
2017-04-02T02:46:58.037Z,29.77
2017-04-02T02:48:06.845Z,29.77
2017-04-02T02:49:15.606Z,29.77
2017-04-02T02:50:24.670Z,29.49
2017-04-02T02:51:34.034Z,29.68
2017-04-02T02:52:42.779Z,29.77
2017-04-02T02:53:51.498Z,29.77
2017-04-02T02:55:00.249Z,29.77
2017-04-02T02:56:09.015Z,29.68
2017-04-02T02:57:17.776Z,29.77
2017-04-02T02:58:26.510Z,29.39
2017-04-02T02:59:35.558Z,29.68
2017-04-02T03:00:44.313Z,29.29
2017-04-02T03:01:53.082Z,29.87
2017-04-02T03:03:02.124Z,29.49
2017-04-02T03:04:11.149Z,29.87
2017-04-02T03:05:19.878Z,29.77
2017-04-02T03:06:28.608Z,29.68
2017-04-02T03:07:37.327Z,29.39
2017-04-02T03:08:46.081Z,29.77
2017-04-02T03:09:54.842Z,29.97
2017-04-02T03:11:03.602Z,29.87
2017-04-02T03:12:12.361Z,29.39
2017-04-02T03:13:21.727Z,29.58
2017-04-02T03:14:30.470Z,29.49
2017-04-02T03:15:39.844Z,29.68
2017-04-02T03:16:48.583Z,29.77
2017-04-02T03:17:57.621Z,29.68
2017-04-02T03:19:06.398Z,29.87
2017-04-02T03:20:15.154Z,29.87
2017-04-02T03:21:23.890Z,29.58
2017-04-02T03:22:32.905Z,29.97
2017-04-02T03:23:41.661Z,29.87
2017-04-02T03:24:50.416Z,29.68
2017-04-02T03:25:59.175Z,29.97
2017-04-02T03:27:07.889Z,29.77
2017-04-02T03:28:16.608Z,30.07
2017-04-02T03:29:25.369Z,29.77
2017-04-02T03:30:34.333Z,29.77
2017-04-02T03:31:43.392Z,29.87
2017-04-02T03:32:52.156Z,29.77
2017-04-02T03:34:00.891Z,29.77
2017-04-02T03:35:09.802Z,29.49
2017-04-02T03:36:18.870Z,29.68
2017-04-02T03:37:27.631Z,29.68
2017-04-02T03:38:36.590Z,29.2
2017-04-02T03:39:45.348Z,29.68
2017-04-02T03:40:54.650Z,29.49
2017-04-02T03:42:03.385Z,29.39
2017-04-02T03:43:12.106Z,29.2
2017-04-02T03:44:21.465Z,29.49
2017-04-02T03:45:30.229Z,29.49
2017-04-02T03:46:39.292Z,29.29
2017-04-02T03:47:48.050Z,29.2
2017-04-02T03:48:56.815Z,29.39
2017-04-02T03:50:05.877Z,29.2
2017-04-02T03:51:14.936Z,29.49
2017-04-02T03:52:23.691Z,29.49
2017-04-02T03:53:32.818Z,29.18
2017-04-02T03:54:41.513Z,29.08
2017-04-02T03:55:50.269Z,29.1
2017-04-02T03:56:59.028Z,29.87
2017-04-02T03:58:08.393Z,29.68
2017-04-02T03:59:17.184Z,29.39
2017-04-02T04:00:26.251Z,28.91
2017-04-02T04:01:35.308Z,29.1
2017-04-02T04:02:44.027Z,29.39
2017-04-02T04:03:52.764Z,29.1
2017-04-02T04:05:01.517Z,29.1
2017-04-02T04:06:10.585Z,29.58
2017-04-02T04:07:19.352Z,29.58
2017-04-02T04:08:28.117Z,29.39
2017-04-02T04:09:37.024Z,29.68
2017-04-02T04:10:45.792Z,29.38
2017-04-02T04:11:54.529Z,29.28
2017-04-02T04:13:03.253Z,29.49
2017-04-02T04:14:11.992Z,29.2
2017-04-02T04:15:20.705Z,29.57
2017-04-02T04:16:29.768Z,29.38
2017-04-02T04:17:38.833Z,29.2
2017-04-02T04:18:47.588Z,28.72
2017-04-02T04:19:56.349Z,28.72
2017-04-02T04:21:05.420Z,28.81
2017-04-02T04:22:14.187Z,28.62
2017-04-02T04:23:23.226Z,29.1
2017-04-02T04:24:31.937Z,28.91
2017-04-02T04:25:40.666Z,29
2017-04-02T04:26:49.389Z,28.91
2017-04-02T04:27:58.452Z,28.81
2017-04-02T04:29:07.213Z,28.91
2017-04-02T04:30:16.254Z,28.91
2017-04-02T04:31:24.947Z,29.29
2017-04-02T04:32:33.659Z,29.2
2017-04-02T04:33:42.890Z,28.52
2017-04-02T04:34:51.585Z,28.52
2017-04-02T04:36:00.651Z,29
2017-04-02T04:37:09.725Z,29
2017-04-02T04:38:18.824Z,28.81
2017-04-02T04:39:27.887Z,28.62
2017-04-02T04:40:36.650Z,28.91
2017-04-02T04:41:45.406Z,28.91
2017-04-02T04:42:54.171Z,28.81
2017-04-02T04:44:03.232Z,28.81
2017-04-02T04:45:12.300Z,29.2
2017-04-02T04:46:21.065Z,28.72
2017-04-02T04:47:29.860Z,28.81
2017-04-02T04:48:38.627Z,28.81
2017-04-02T04:49:47.431Z,28.62
2017-04-02T04:50:56.733Z,28.81
2017-04-02T04:52:05.491Z,28.42
2017-04-02T04:53:14.592Z,28.52
2017-04-02T04:54:23.347Z,28.72
2017-04-02T04:55:32.110Z,28.62
2017-04-02T04:56:41.479Z,28.52
2017-04-02T04:57:50.243Z,28.72
2017-04-02T04:58:59.217Z,28.81
2017-04-02T05:00:07.975Z,28.42
2017-04-02T05:01:16.730Z,28.72
2017-04-02T05:02:25.750Z,28.72
2017-04-02T05:03:34.764Z,28.72
2017-04-02T05:04:43.521Z,28.62
2017-04-02T05:05:52.560Z,28.42
2017-04-02T05:07:01.261Z,28.52
2017-04-02T05:08:09.989Z,28.42
2017-04-02T05:09:18.708Z,28.42
2017-04-02T05:10:27.468Z,28.23
2017-04-02T05:11:36.531Z,28.52
2017-04-02T05:12:45.283Z,28.72
2017-04-02T05:13:54.040Z,28.42
2017-04-02T05:15:03.105Z,28.52
2017-04-02T05:16:11.865Z,28.42
2017-04-02T05:17:20.667Z,28.42
2017-04-02T05:18:29.729Z,28.52
2017-04-02T05:19:38.789Z,28.52
2017-04-02T05:20:47.554Z,28.81
2017-04-02T05:21:56.612Z,28.33
2017-04-02T05:23:05.869Z,28.42
2017-04-02T05:24:15.249Z,28.23
2017-04-02T05:25:24.312Z,28.52
2017-04-02T05:26:33.071Z,28.52
2017-04-02T05:27:42.148Z,28.42
2017-04-02T05:28:50.914Z,28.42
2017-04-02T05:29:59.972Z,28.23
2017-04-02T05:31:09.033Z,28.62
2017-04-02T05:32:17.803Z,28.81
2017-04-02T05:33:26.840Z,28.42
2017-04-02T05:34:35.957Z,28.81
2017-04-02T05:35:44.715Z,28.42
2017-04-02T05:36:53.784Z,28.42
2017-04-02T05:38:02.555Z,28.42
2017-04-02T05:39:11.317Z,28.42
2017-04-02T05:40:20.075Z,28.44
2017-04-02T05:41:28.832Z,28.53
2017-04-02T05:42:37.581Z,28.52
2017-04-02T05:43:46.335Z,28.53
2017-04-02T05:44:55.090Z,28.33
2017-04-02T05:46:03.852Z,28.62
2017-04-02T05:47:12.642Z,28.25
2017-04-02T05:48:21.420Z,28.42
2017-04-02T05:49:30.185Z,28.33
2017-04-02T05:50:38.922Z,28.34
2017-04-02T05:51:47.627Z,28.63
2017-04-02T05:52:56.696Z,28.44
2017-04-02T05:54:05.457Z,28.25
2017-04-02T05:55:14.205Z,28.34
2017-04-02T05:56:22.965Z,28.15
2017-04-02T05:57:32.070Z,28.25
2017-04-02T05:58:40.827Z,28.44
2017-04-02T05:59:49.590Z,28.25
2017-04-02T06:00:58.358Z,28.25
2017-04-02T06:02:07.129Z,28.25
2017-04-02T06:03:15.943Z,28.44
2017-04-02T06:04:24.705Z,28.34
2017-04-02T06:05:33.553Z,28.44
2017-04-02T06:06:42.284Z,28.34
2017-04-02T06:07:51.046Z,28.34
2017-04-02T06:08:59.784Z,28.25
2017-04-02T06:10:09.108Z,28.44
2017-04-02T06:11:17.883Z,28.53
2017-04-02T06:12:26.977Z,28.34
2017-04-02T06:13:35.741Z,28.25
2017-04-02T06:14:44.499Z,28.15
2017-04-02T06:15:53.862Z,28.25
2017-04-02T06:17:02.595Z,28.25
2017-04-02T06:18:11.356Z,28.25
2017-04-02T06:19:20.089Z,28.25
2017-04-02T06:20:28.779Z,28.34
2017-04-02T06:21:37.535Z,28.05
2017-04-02T06:22:47.201Z,28.25
2017-04-02T06:23:55.930Z,28.15
2017-04-02T06:25:04.655Z,28.15
2017-04-02T06:26:13.613Z,28.15
2017-04-02T06:27:22.366Z,28.25
2017-04-02T06:28:31.459Z,28.44
2017-04-02T06:29:40.192Z,28.64
2017-04-02T06:30:48.928Z,28.34
2017-04-02T06:31:57.954Z,28.05
2017-04-02T06:33:06.649Z,28.44
2017-04-02T06:34:15.568Z,27.87
2017-04-02T06:35:24.332Z,28.07
2017-04-02T06:36:33.699Z,27.97
2017-04-02T06:37:42.629Z,28.05
2017-04-02T06:38:51.347Z,28.07
2017-04-02T06:40:00.097Z,27.78
2017-04-02T06:41:09.131Z,28.07
2017-04-02T06:42:17.855Z,27.87
2017-04-02T06:43:26.597Z,27.68
2017-04-02T06:44:35.358Z,27.68
2017-04-02T06:45:44.053Z,27.78
2017-04-02T06:46:52.781Z,28.07
2017-04-02T06:48:01.534Z,28.07
2017-04-02T06:49:10.284Z,27.97
2017-04-02T06:50:19.033Z,28.07
2017-04-02T06:51:27.751Z,28.26
2017-04-02T06:52:37.088Z,28.26
2017-04-02T06:53:46.012Z,27.87
2017-04-02T06:54:54.770Z,27.68
2017-04-02T06:56:03.829Z,27.87
2017-04-02T06:57:13.191Z,27.78
2017-04-02T06:58:21.949Z,27.49
2017-04-02T06:59:30.675Z,27.87
2017-04-02T07:00:39.397Z,27.68
2017-04-02T07:01:48.167Z,27.39
2017-04-02T07:02:57.531Z,27.59
2017-04-02T07:04:06.612Z,27.29
2017-04-02T07:05:15.723Z,27.4
2017-04-02T07:06:24.481Z,27.5
2017-04-02T07:07:33.543Z,27.31
2017-04-02T07:08:42.301Z,27.4
2017-04-02T07:09:51.066Z,27.31
2017-04-02T07:11:00.102Z,27.4
2017-04-02T07:12:08.821Z,27.12
2017-04-02T07:13:17.860Z,27.12
2017-04-02T07:14:26.557Z,27.12
2017-04-02T07:15:35.579Z,27.12
2017-04-02T07:16:44.948Z,27.12
2017-04-02T07:17:53.743Z,26.92
2017-04-02T07:19:02.516Z,26.84
2017-04-02T07:20:11.782Z,27.23
2017-04-02T07:21:20.545Z,26.92
2017-04-02T07:22:29.304Z,26.92
2017-04-02T07:23:38.087Z,27.03
2017-04-02T07:24:46.824Z,27.03
2017-04-02T07:25:55.545Z,26.93
2017-04-02T07:27:04.302Z,26.84
2017-04-02T07:28:13.037Z,26.55
2017-04-02T07:29:21.754Z,26.26
2017-04-02T07:30:30.686Z,26.26
2017-04-02T07:31:39.707Z,26.56
2017-04-02T07:32:48.476Z,26.37
2017-04-02T07:33:57.241Z,26.28
2017-04-02T07:35:06.238Z,25.79
2017-04-02T07:36:14.992Z,25.5
2017-04-02T07:37:23.758Z,25.4
2017-04-02T07:38:32.524Z,25.81
2017-04-02T07:39:41.280Z,25.51
2017-04-02T07:40:50.547Z,25.03
2017-04-02T07:41:59.925Z,25.32
2017-04-02T07:43:08.687Z,24.74
2017-04-02T07:44:17.441Z,25.04
2017-04-02T07:45:26.485Z,25.04
2017-04-02T07:46:35.198Z,24.66
2017-04-02T07:47:43.965Z,24.66
2017-04-02T07:48:53.078Z,25.04
2017-04-02T07:50:02.133Z,24.56
2017-04-02T07:51:11.199Z,24.77
2017-04-02T07:52:19.965Z,24.38
2017-04-02T07:53:28.725Z,24.38
2017-04-02T07:54:37.478Z,24.38
2017-04-02T07:55:46.561Z,24.28
2017-04-02T07:56:55.322Z,24.86
2017-04-02T07:58:04.304Z,24.57
2017-04-02T07:59:13.064Z,24.57
2017-04-02T08:00:21.818Z,24.38
2017-04-02T08:01:30.891Z,24.18
2017-04-02T08:02:39.962Z,24.18
2017-04-02T08:03:48.729Z,23.91
2017-04-02T08:04:57.465Z,23.91
2017-04-02T08:06:06.221Z,23.71
2017-04-02T08:07:14.975Z,23.61
2017-04-02T08:08:23.935Z,23.71
2017-04-02T08:09:32.946Z,23.81
2017-04-02T08:10:41.688Z,23.52
2017-04-02T08:11:50.403Z,23.42
2017-04-02T08:12:59.162Z,23.24
2017-04-02T08:14:07.940Z,23.71
2017-04-02T08:15:16.683Z,23.72
2017-04-02T08:16:25.395Z,23.33
2017-04-02T08:17:34.129Z,23.72
2017-04-02T08:18:42.847Z,23.63
2017-04-02T08:19:51.914Z,23.63
2017-04-02T08:21:00.673Z,23.33
2017-04-02T08:22:09.747Z,23.33
2017-04-02T08:23:18.819Z,23.53
2017-04-02T08:24:27.584Z,23.72
2017-04-02T08:25:36.346Z,23.43
2017-04-02T08:26:45.105Z,23.72
2017-04-02T08:27:53.864Z,23.33
2017-04-02T08:29:02.620Z,23.24
2017-04-02T08:30:11.388Z,23.61
2017-04-02T08:31:20.156Z,23.61
2017-04-02T08:32:28.913Z,23.14
2017-04-02T08:33:38.079Z,23.63
2017-04-02T08:34:47.058Z,23.33
2017-04-02T08:35:55.799Z,23.53
2017-04-02T08:37:04.541Z,23.72
2017-04-02T08:38:13.579Z,23.53
2017-04-02T08:39:22.360Z,23.63
2017-04-02T08:40:31.418Z,23.53
2017-04-02T08:41:40.147Z,23.72
2017-04-02T08:42:48.866Z,23.53
2017-04-02T08:43:57.626Z,23.72
2017-04-02T08:45:06.389Z,23.72
2017-04-02T08:46:15.455Z,23.53
2017-04-02T08:47:24.504Z,23.33
2017-04-02T08:48:33.518Z,23.24
2017-04-02T08:49:42.282Z,23.43
2017-04-02T08:50:51.653Z,23.24
2017-04-02T08:52:00.416Z,23.24
2017-04-02T08:53:09.483Z,23.24
2017-04-02T08:54:18.252Z,23.16
2017-04-02T08:55:27.011Z,23.16
2017-04-02T08:56:35.926Z,23.35
2017-04-02T08:57:44.696Z,23.16
2017-04-02T08:58:53.462Z,22.66
2017-04-02T09:00:02.224Z,23.05
2017-04-02T09:01:10.972Z,23.16
2017-04-02T09:02:19.739Z,23.16
2017-04-02T09:03:28.814Z,22.96
2017-04-02T09:04:37.585Z,22.96
2017-04-02T09:05:46.686Z,22.96
2017-04-02T09:06:55.642Z,22.96
2017-04-02T09:08:04.407Z,22.86
2017-04-02T09:09:13.468Z,22.86
2017-04-02T09:10:22.541Z,22.85
2017-04-02T09:11:31.599Z,22.86
2017-04-02T09:12:40.466Z,23.05
2017-04-02T09:13:49.228Z,23.14
2017-04-02T09:14:57.986Z,22.95
2017-04-02T09:16:06.745Z,23.05
2017-04-02T09:17:15.508Z,22.95
2017-04-02T09:18:24.272Z,23.05
2017-04-02T09:19:33.986Z,23.05
2017-04-02T09:20:43.045Z,23.24
2017-04-02T09:21:52.415Z,23.24
2017-04-02T09:23:01.462Z,22.95
2017-04-02T09:24:10.190Z,22.95
2017-04-02T09:25:19.580Z,22.95
2017-04-02T09:26:29.248Z,23.33
2017-04-02T09:27:38.015Z,23.14
2017-04-02T09:28:46.774Z,22.37
2017-04-02T09:29:55.537Z,22.27
2017-04-02T09:31:04.579Z,21.7
2017-04-02T09:32:13.303Z,20.46
2017-04-02T09:33:22.058Z,19.79
2017-04-02T09:34:31.144Z,19.04
2017-04-02T09:35:39.905Z,17.97
2017-04-02T09:36:48.636Z,17.12
2017-04-02T09:37:57.707Z,16.94
2017-04-02T09:39:06.465Z,16.17
2017-04-02T09:40:15.233Z,15.78
2017-04-02T09:41:24.273Z,15.5
2017-04-02T09:42:33.308Z,14.83
2017-04-02T09:43:42.039Z,13.95
2017-04-02T09:44:50.964Z,14.26
2017-04-02T09:46:00.643Z,14.16
2017-04-02T09:47:09.411Z,14.73
2017-04-02T09:48:18.151Z,15.12
2017-04-02T09:49:27.213Z,14.83
2017-04-02T09:50:36.285Z,15.12
2017-04-02T09:51:45.056Z,14.25
2017-04-02T09:52:53.820Z,14.05
2017-04-02T09:54:02.585Z,13.68
2017-04-02T09:55:11.352Z,13.2
2017-04-02T09:56:20.112Z,12.82
2017-04-02T09:57:29.176Z,12.33
2017-04-02T09:58:38.284Z,11.74
2017-04-02T09:59:47.021Z,11.85
2017-04-02T10:00:55.749Z,11.66
2017-04-02T10:02:04.514Z,11.38
2017-04-02T10:03:13.276Z,11.28
2017-04-02T10:04:22.042Z,11.66
2017-04-02T10:05:31.084Z,11.75
2017-04-02T10:06:39.808Z,12.33
2017-04-02T10:07:48.570Z,12.81
2017-04-02T10:08:57.339Z,13.29
2017-04-02T10:10:06.990Z,13.67
2017-04-02T10:11:15.716Z,14.34
2017-04-02T10:12:24.792Z,14.25
2017-04-02T10:13:33.763Z,14.15
2017-04-02T10:14:42.497Z,13.27
2017-04-02T10:15:51.827Z,12.9
2017-04-02T10:17:00.845Z,11.83
2017-04-02T10:18:09.609Z,11.35
2017-04-02T10:19:18.369Z,10.78
2017-04-02T10:20:27.148Z,10.69
2017-04-02T10:21:36.219Z,9.61
2017-04-02T10:22:45.261Z,9.13
2017-04-02T10:23:54.370Z,8.94
2017-04-02T10:25:03.133Z,9.05
2017-04-02T10:26:11.892Z,9.83
2017-04-02T10:27:20.663Z,9.73
2017-04-02T10:28:29.830Z,10.21
2017-04-02T10:29:38.585Z,10.59
2017-04-02T10:30:47.348Z,11.27
2017-04-02T10:31:56.101Z,11.36
2017-04-02T10:33:04.837Z,12.32
2017-04-02T10:34:13.560Z,12.52
2017-04-02T10:35:22.314Z,13
2017-04-02T10:36:31.657Z,13.29
2017-04-02T10:37:40.781Z,13.96
2017-04-02T10:38:49.825Z,14.15
2017-04-02T10:39:58.543Z,14.43
2017-04-02T10:41:07.609Z,14.33
2017-04-02T10:42:16.337Z,14.72
2017-04-02T10:43:25.095Z,14.81
2017-04-02T10:44:33.987Z,15.19
2017-04-02T10:45:43.317Z,15.87
2017-04-02T10:46:52.385Z,15.97
2017-04-02T10:48:01.146Z,16.05
2017-04-02T10:49:09.912Z,16.25
2017-04-02T10:50:18.671Z,16.24
2017-04-02T10:51:27.388Z,16.44
2017-04-02T10:52:36.908Z,16.63
2017-04-02T10:53:45.666Z,16.72
2017-04-02T10:54:54.428Z,16.82
2017-04-02T10:56:03.488Z,16.91
2017-04-02T10:57:12.862Z,17.5
2017-04-02T10:58:21.626Z,17.4
2017-04-02T10:59:30.690Z,17.1
2017-04-02T11:00:39.425Z,16.82
2017-04-02T11:01:48.449Z,16.91
2017-04-02T11:02:57.208Z,16.24
2017-04-02T11:04:05.966Z,15.87
2017-04-02T11:05:14.727Z,14.91
2017-04-02T11:06:23.485Z,13.95
2017-04-02T11:07:32.523Z,13.76
2017-04-02T11:08:41.550Z,13.46
2017-04-02T11:09:50.310Z,13.67
2017-04-02T11:10:59.069Z,13.96
2017-04-02T11:12:08.433Z,13.95
2017-04-02T11:13:17.196Z,13.66
2017-04-02T11:14:25.949Z,12.89
2017-04-02T11:15:34.718Z,12.8
2017-04-02T11:16:43.484Z,12.41
2017-04-02T11:17:52.216Z,11.64
2017-04-02T11:19:00.936Z,11.84
2017-04-02T11:20:09.700Z,11.26
2017-04-02T11:21:18.452Z,10.68
2017-04-02T11:22:27.195Z,9.91
2017-04-02T11:23:35.920Z,9.72
2017-04-02T11:24:44.686Z,9.12
2017-04-02T11:25:53.444Z,9.03
2017-04-02T11:27:02.205Z,8.94
2017-04-02T11:28:11.270Z,8.75
2017-04-02T11:29:20.025Z,9.14
2017-04-02T11:30:28.768Z,9.13
2017-04-02T11:31:37.766Z,9.33
2017-04-02T11:32:46.483Z,9.12
2017-04-02T11:33:55.244Z,9.12
2017-04-02T11:35:04.311Z,9.61
2017-04-02T11:36:13.366Z,10.2
2017-04-02T11:37:22.129Z,10.58
2017-04-02T11:38:31.193Z,11.07
2017-04-02T11:39:39.953Z,11.06
2017-04-02T11:40:48.716Z,11.54
2017-04-02T11:41:57.489Z,11.63
2017-04-02T11:43:06.460Z,11.43
2017-04-02T11:44:15.221Z,11.54
2017-04-02T11:45:23.987Z,11.73
2017-04-02T11:46:32.750Z,11.35
2017-04-02T11:47:41.760Z,11.15
2017-04-02T11:48:50.523Z,11.16
2017-04-02T11:49:59.282Z,10.87
2017-04-02T11:51:08.048Z,10.28
2017-04-02T11:52:16.813Z,10.19
2017-04-02T11:53:25.768Z,10
2017-04-02T11:54:34.484Z,9.41
2017-04-02T11:55:43.247Z,9.81
2017-04-02T11:56:52.006Z,9.12
2017-04-02T11:58:00.744Z,9.23
2017-04-02T11:59:09.803Z,8.84
2017-04-02T12:00:18.553Z,8.64
2017-04-02T12:01:27.277Z,8.45
2017-04-02T12:02:36.057Z,8.36
2017-04-02T12:03:44.821Z,8.75
2017-04-02T12:04:53.585Z,8.36
2017-04-02T12:06:02.652Z,8.75
2017-04-02T12:07:11.416Z,9.23
2017-04-02T12:08:20.180Z,9.42
2017-04-02T12:09:29.553Z,9.81
2017-04-02T12:10:38.311Z,10.09
2017-04-02T12:11:47.073Z,10.58
2017-04-02T12:12:55.843Z,11.26
2017-04-02T12:14:04.612Z,11.45
2017-04-02T12:15:13.340Z,11.93
2017-04-02T12:16:22.068Z,11.73
2017-04-02T12:17:30.831Z,12.12
2017-04-02T12:18:39.896Z,12.41
2017-04-02T12:19:49.270Z,12.99
2017-04-02T12:20:58.035Z,12.7
2017-04-02T12:22:06.801Z,13.18
2017-04-02T12:23:15.563Z,13.09
2017-04-02T12:24:24.671Z,13.07
2017-04-02T12:25:33.635Z,13.76
2017-04-02T12:26:42.400Z,13.76
2017-04-02T12:27:51.473Z,13.65
2017-04-02T12:29:00.535Z,14.14
2017-04-02T12:30:09.255Z,14.04
2017-04-02T12:31:18.025Z,14.14
2017-04-02T12:32:26.790Z,14.43
2017-04-02T12:33:35.676Z,14.23
2017-04-02T12:34:44.710Z,14.03
2017-04-02T12:35:53.946Z,14.71
2017-04-02T12:37:02.642Z,14.51
2017-04-02T12:38:11.363Z,15.19
2017-04-02T12:39:20.113Z,15.09
2017-04-02T12:40:28.847Z,15.48
2017-04-02T12:41:37.538Z,15.48
2017-04-02T12:42:46.255Z,15.38
2017-04-02T12:43:54.985Z,15.77
2017-04-02T12:45:03.707Z,15.77
2017-04-02T12:46:12.500Z,15.96
2017-04-02T12:47:21.231Z,16.05
2017-04-02T12:48:29.956Z,15.86
2017-04-02T12:49:39.026Z,16.24
2017-04-02T12:50:47.783Z,16.14
2017-04-02T12:51:56.584Z,16.24
2017-04-02T12:53:05.346Z,16.14
2017-04-02T12:54:14.105Z,16.33
2017-04-02T12:55:23.177Z,16.53
2017-04-02T12:56:31.943Z,16.52
2017-04-02T12:57:40.706Z,16.81
2017-04-02T12:58:49.782Z,16.52
2017-04-02T12:59:58.508Z,16.61
2017-04-02T13:01:07.267Z,16.99
2017-04-02T13:02:16.024Z,16.9
2017-04-02T13:03:24.781Z,17.29
2017-04-02T13:04:33.544Z,17.09
2017-04-02T13:05:42.294Z,17.29
2017-04-02T13:06:51.063Z,17.58
2017-04-02T13:08:00.102Z,17.66
2017-04-02T13:09:09.152Z,17.77
2017-04-02T13:10:17.919Z,17.38
2017-04-02T13:11:26.686Z,17.97
2017-04-02T13:12:35.760Z,17.97
2017-04-02T13:13:44.725Z,17.66
2017-04-02T13:14:53.489Z,17.76
2017-04-02T13:16:02.877Z,17.66
2017-04-02T13:17:12.556Z,17.87
2017-04-02T13:18:21.324Z,17.66
2017-04-02T13:19:30.380Z,17.96
2017-04-02T13:20:39.138Z,17.96
2017-04-02T13:21:47.899Z,17.86
2017-04-02T13:22:56.965Z,18.25
2017-04-02T13:24:06.029Z,17.76
2017-04-02T13:25:14.785Z,18.05
2017-04-02T13:26:23.535Z,18.15
2017-04-02T13:27:32.299Z,18.35
2017-04-02T13:28:41.153Z,17.86
2017-04-02T13:29:49.913Z,18.25
2017-04-02T13:30:58.978Z,18.35
2017-04-02T13:32:07.743Z,18.05
2017-04-02T13:33:16.800Z,18.15
2017-04-02T13:34:25.535Z,18.24
2017-04-02T13:35:34.287Z,18.24
2017-04-02T13:36:43.648Z,18.24
2017-04-02T13:37:52.706Z,18.15
2017-04-02T13:39:01.465Z,18.24
2017-04-02T13:40:10.231Z,18.43
2017-04-02T13:41:19.183Z,18.05
2017-04-02T13:42:27.923Z,18.33
2017-04-02T13:43:36.613Z,18.43
2017-04-02T13:44:45.339Z,18.23
2017-04-02T13:45:54.098Z,18.43
2017-04-02T13:47:02.860Z,18.33
2017-04-02T13:48:11.618Z,18.13
2017-04-02T13:49:20.381Z,18.43
2017-04-02T13:50:29.116Z,18.04
2017-04-02T13:51:38.012Z,18.33
2017-04-02T13:52:47.037Z,18.33
2017-04-02T13:53:55.791Z,18.43
2017-04-02T13:55:05.197Z,18.23
2017-04-02T13:56:13.952Z,18.43
2017-04-02T13:57:22.711Z,18.13
2017-04-02T13:58:31.462Z,18.9
2017-04-02T13:59:40.223Z,18.61
2017-04-02T14:00:49.289Z,18.71
2017-04-02T14:01:58.081Z,18.8
2017-04-02T14:03:06.837Z,19
2017-04-02T14:04:15.597Z,19
2017-04-02T14:05:24.663Z,18.8
2017-04-02T14:06:33.457Z,19.09
2017-04-02T14:07:42.202Z,19
2017-04-02T14:08:50.921Z,19
2017-04-02T14:09:59.984Z,19.09
2017-04-02T14:11:09.063Z,19.19
2017-04-02T14:12:17.813Z,19.09
2017-04-02T14:13:26.846Z,18.9
2017-04-02T14:14:35.610Z,19.18
2017-04-02T14:15:44.681Z,18.99
2017-04-02T14:16:53.440Z,19.18
2017-04-02T14:18:02.501Z,19.28
2017-04-02T14:19:11.260Z,19
2017-04-02T14:20:20.027Z,19.47
2017-04-02T14:21:28.785Z,19.67
2017-04-02T14:22:37.878Z,19.57
2017-04-02T14:23:46.909Z,19.57
2017-04-02T14:24:55.625Z,19.76
2017-04-02T14:26:04.366Z,19.86
2017-04-02T14:27:13.088Z,19.86
2017-04-02T14:28:22.435Z,19.47
2017-04-02T14:29:31.159Z,19.76
2017-04-02T14:30:39.925Z,19.57
2017-04-02T14:31:48.674Z,19.76
2017-04-02T14:32:57.445Z,19.86
2017-04-02T14:34:06.464Z,19.76
2017-04-02T14:35:15.532Z,19.76
2017-04-02T14:36:24.597Z,19.66
2017-04-02T14:37:33.363Z,19.66
2017-04-02T14:38:42.121Z,19.67
2017-04-02T14:39:50.876Z,19.75
2017-04-02T14:40:59.633Z,20.14
2017-04-02T14:42:08.389Z,19.96
2017-04-02T14:43:17.152Z,20.14
2017-04-02T14:44:25.908Z,20.24
2017-04-02T14:45:34.720Z,20.14
2017-04-02T14:46:43.781Z,20.04
2017-04-02T14:47:52.541Z,20.14
2017-04-02T14:49:01.296Z,20.04
2017-04-02T14:50:10.037Z,20.14
2017-04-02T14:51:18.731Z,20.14